sensor_id;sensor_type;location;lat;lon;timestamp;P1;durP1;ratioP1;P2;durP2;ratioP2
66085;SDS011;52868;49.758;9.586;2022-12-18T00:00:02;18.92;;;6.13;;
66085;SDS011;52868;49.758;9.586;2022-12-18T00:02:28;13.40;;;5.63;;
66085;SDS011;52868;49.758;9.586;2022-12-18T00:04:54;10.77;;;5.28;;
66085;SDS011;52868;49.758;9.586;2022-12-18T00:07:20;15.57;;;6.38;;
66085;SDS011;52868;49.758;9.586;2022-12-18T00:09:46;11.20;;;4.95;;
66085;SDS011;52868;49.758;9.586;2022-12-18T00:12:15;15.02;;;5.47;;
66085;SDS011;52868;49.758;9.586;2022-12-18T00:14:43;25.23;;;6.78;;
66085;SDS011;52868;49.758;9.586;2022-12-18T00:17:09;14.25;;;5.60;;
66085;SDS011;52868;49.758;9.586;2022-12-18T00:19:35;10.50;;;4.72;;
66085;SDS011;52868;49.758;9.586;2022-12-18T00:22:01;12.25;;;5.00;;
66085;SDS011;52868;49.758;9.586;2022-12-18T00:24:27;12.05;;;6.13;;
66085;SDS011;52868;49.758;9.586;2022-12-18T00:26:53;18.48;;;6.45;;
66085;SDS011;52868;49.758;9.586;2022-12-18T00:29:19;15.48;;;5.53;;
66085;SDS011;52868;49.758;9.586;2022-12-18T00:31:45;12.93;;;5.15;;
66085;SDS011;52868;49.758;9.586;2022-12-18T00:34:12;18.83;;;5.57;;
66085;SDS011;52868;49.758;9.586;2022-12-18T00:36:38;14.32;;;6.18;;
66085;SDS011;52868;49.758;9.586;2022-12-18T00:39:04;18.38;;;6.18;;
66085;SDS011;52868;49.758;9.586;2022-12-18T00:41:31;16.58;;;5.65;;
66085;SDS011;52868;49.758;9.586;2022-12-18T00:44:16;20.10;;;4.97;;
66085;SDS011;52868;49.758;9.586;2022-12-18T00:46:42;19.33;;;5.55;;
66085;SDS011;52868;49.758;9.586;2022-12-18T00:49:09;11.45;;;5.10;;
66085;SDS011;52868;49.758;9.586;2022-12-18T00:51:35;14.00;;;5.20;;
66085;SDS011;52868;49.758;9.586;2022-12-18T00:54:01;17.95;;;5.80;;
66085;SDS011;52868;49.758;9.586;2022-12-18T00:56:27;15.30;;;6.20;;
66085;SDS011;52868;49.758;9.586;2022-12-18T00:58:53;15.52;;;6.40;;
66085;SDS011;52868;49.758;9.586;2022-12-18T01:01:19;17.83;;;6.38;;
66085;SDS011;52868;49.758;9.586;2022-12-18T01:03:45;17.73;;;6.90;;
66085;SDS011;52868;49.758;9.586;2022-12-18T01:06:12;15.25;;;6.25;;
66085;SDS011;52868;49.758;9.586;2022-12-18T01:08:39;18.80;;;6.30;;
66085;SDS011;52868;49.758;9.586;2022-12-18T01:11:12;16.20;;;5.63;;
66085;SDS011;52868;49.758;9.586;2022-12-18T01:13:39;22.77;;;6.00;;
66085;SDS011;52868;49.758;9.586;2022-12-18T01:16:05;15.90;;;5.70;;
66085;SDS011;52868;49.758;9.586;2022-12-18T01:18:31;14.32;;;5.82;;
66085;SDS011;52868;49.758;9.586;2022-12-18T01:20:57;17.73;;;6.40;;
66085;SDS011;52868;49.758;9.586;2022-12-18T01:23:23;22.23;;;6.65;;
66085;SDS011;52868;49.758;9.586;2022-12-18T01:25:50;14.27;;;5.82;;
66085;SDS011;52868;49.758;9.586;2022-12-18T01:28:16;15.27;;;5.53;;
66085;SDS011;52868;49.758;9.586;2022-12-18T01:30:42;17.83;;;6.68;;
66085;SDS011;52868;49.758;9.586;2022-12-18T01:33:08;17.85;;;5.70;;
66085;SDS011;52868;49.758;9.586;2022-12-18T01:35:39;15.38;;;6.07;;
66085;SDS011;52868;49.758;9.586;2022-12-18T01:38:05;18.55;;;5.85;;
66085;SDS011;52868;49.758;9.586;2022-12-18T01:40:31;18.77;;;5.78;;
66085;SDS011;52868;49.758;9.586;2022-12-18T01:42:57;18.33;;;7.35;;
66085;SDS011;52868;49.758;9.586;2022-12-18T01:45:27;17.45;;;5.65;;
66085;SDS011;52868;49.758;9.586;2022-12-18T01:48:05;14.38;;;5.57;;
66085;SDS011;52868;49.758;9.586;2022-12-18T01:50:39;14.52;;;6.05;;
66085;SDS011;52868;49.758;9.586;2022-12-18T01:53:06;19.15;;;5.53;;
66085;SDS011;52868;49.758;9.586;2022-12-18T01:55:38;19.58;;;5.88;;
66085;SDS011;52868;49.758;9.586;2022-12-18T01:58:06;16.38;;;6.03;;
66085;SDS011;52868;49.758;9.586;2022-12-18T02:00:32;15.52;;;5.88;;
66085;SDS011;52868;49.758;9.586;2022-12-18T02:02:58;16.73;;;7.75;;
66085;SDS011;52868;49.758;9.586;2022-12-18T02:10:35;14.10;;;5.32;;
66085;SDS011;52868;49.758;9.586;2022-12-18T02:21:17;14.90;;;5.80;;
66085;SDS011;52868;49.758;9.586;2022-12-18T02:26:30;14.93;;;5.22;;
66085;SDS011;52868;49.758;9.586;2022-12-18T02:31:30;14.57;;;5.28;;
66085;SDS011;52868;49.758;9.586;2022-12-18T02:33:58;15.88;;;6.45;;
66085;SDS011;52868;49.758;9.586;2022-12-18T02:36:26;13.00;;;5.50;;
66085;SDS011;52868;49.758;9.586;2022-12-18T02:38:53;12.75;;;5.97;;
66085;SDS011;52868;49.758;9.586;2022-12-18T02:41:20;16.88;;;6.15;;
66085;SDS011;52868;49.758;9.586;2022-12-18T02:43:53;13.45;;;5.07;;
66085;SDS011;52868;49.758;9.586;2022-12-18T02:48:49;10.30;;;6.10;;
66085;SDS011;52868;49.758;9.586;2022-12-18T02:54:18;14.87;;;5.53;;
66085;SDS011;52868;49.758;9.586;2022-12-18T02:56:51;19.85;;;5.63;;
66085;SDS011;52868;49.758;9.586;2022-12-18T02:59:30;14.68;;;5.47;;
66085;SDS011;52868;49.758;9.586;2022-12-18T03:02:02;13.18;;;5.32;;
66085;SDS011;52868;49.758;9.586;2022-12-18T03:04:32;12.27;;;5.40;;
66085;SDS011;52868;49.758;9.586;2022-12-18T03:06:59;12.77;;;5.88;;
66085;SDS011;52868;49.758;9.586;2022-12-18T03:09:29;12.32;;;4.65;;
66085;SDS011;52868;49.758;9.586;2022-12-18T03:12:01;23.83;;;7.03;;
66085;SDS011;52868;49.758;9.586;2022-12-18T03:14:48;16.77;;;4.95;;
66085;SDS011;52868;49.758;9.586;2022-12-18T03:17:15;16.63;;;6.10;;
66085;SDS011;52868;49.758;9.586;2022-12-18T03:19:43;9.18;;;5.15;;
66085;SDS011;52868;49.758;9.586;2022-12-18T03:22:09;16.60;;;6.28;;
66085;SDS011;52868;49.758;9.586;2022-12-18T03:24:35;12.00;;;4.47;;
66085;SDS011;52868;49.758;9.586;2022-12-18T03:27:05;14.20;;;6.38;;
66085;SDS011;52868;49.758;9.586;2022-12-18T03:29:40;11.48;;;4.93;;
66085;SDS011;52868;49.758;9.586;2022-12-18T03:32:10;12.93;;;5.35;;
66085;SDS011;52868;49.758;9.586;2022-12-18T03:34:37;12.43;;;6.90;;
66085;SDS011;52868;49.758;9.586;2022-12-18T03:37:04;14.27;;;6.15;;
66085;SDS011;52868;49.758;9.586;2022-12-18T03:39:31;21.38;;;6.20;;
66085;SDS011;52868;49.758;9.586;2022-12-18T03:44:26;20.70;;;7.10;;
66085;SDS011;52868;49.758;9.586;2022-12-18T03:49:37;11.82;;;5.53;;
66085;SDS011;52868;49.758;9.586;2022-12-18T03:52:06;19.17;;;5.45;;
66085;SDS011;52868;49.758;9.586;2022-12-18T03:54:34;17.65;;;5.65;;
66085;SDS011;52868;49.758;9.586;2022-12-18T03:57:04;11.98;;;5.45;;
66085;SDS011;52868;49.758;9.586;2022-12-18T03:59:32;14.90;;;6.25;;
66085;SDS011;52868;49.758;9.586;2022-12-18T04:01:59;14.85;;;6.03;;
66085;SDS011;52868;49.758;9.586;2022-12-18T04:04:26;9.55;;;5.43;;
66085;SDS011;52868;49.758;9.586;2022-12-18T04:06:53;13.63;;;6.07;;
66085;SDS011;52868;49.758;9.586;2022-12-18T04:09:20;19.92;;;6.55;;
66085;SDS011;52868;49.758;9.586;2022-12-18T04:11:46;16.02;;;6.15;;
66085;SDS011;52868;49.758;9.586;2022-12-18T04:14:13;13.23;;;4.88;;
66085;SDS011;52868;49.758;9.586;2022-12-18T04:16:39;16.63;;;5.55;;
66085;SDS011;52868;49.758;9.586;2022-12-18T04:19:05;15.40;;;5.30;;
66085;SDS011;52868;49.758;9.586;2022-12-18T04:21:31;12.15;;;6.28;;
66085;SDS011;52868;49.758;9.586;2022-12-18T04:23:57;13.27;;;5.55;;
66085;SDS011;52868;49.758;9.586;2022-12-18T04:26:23;26.23;;;5.28;;
66085;SDS011;52868;49.758;9.586;2022-12-18T04:28:49;13.68;;;5.65;;
66085;SDS011;52868;49.758;9.586;2022-12-18T04:31:15;12.80;;;5.07;;
66085;SDS011;52868;49.758;9.586;2022-12-18T04:33:41;11.73;;;5.15;;
66085;SDS011;52868;49.758;9.586;2022-12-18T04:36:07;11.50;;;5.00;;
66085;SDS011;52868;49.758;9.586;2022-12-18T04:38:33;12.85;;;5.43;;
66085;SDS011;52868;49.758;9.586;2022-12-18T04:40:59;13.63;;;5.70;;
66085;SDS011;52868;49.758;9.586;2022-12-18T04:43:25;11.40;;;4.75;;
66085;SDS011;52868;49.758;9.586;2022-12-18T04:45:51;22.55;;;5.90;;
66085;SDS011;52868;49.758;9.586;2022-12-18T04:48:17;13.65;;;5.63;;
66085;SDS011;52868;49.758;9.586;2022-12-18T04:50:45;13.70;;;5.07;;
66085;SDS011;52868;49.758;9.586;2022-12-18T04:53:12;8.82;;;4.78;;
66085;SDS011;52868;49.758;9.586;2022-12-18T04:55:38;15.95;;;6.25;;
66085;SDS011;52868;49.758;9.586;2022-12-18T04:58:04;11.80;;;5.22;;
66085;SDS011;52868;49.758;9.586;2022-12-18T05:00:30;11.63;;;4.57;;
66085;SDS011;52868;49.758;9.586;2022-12-18T05:02:56;14.50;;;5.78;;
66085;SDS011;52868;49.758;9.586;2022-12-18T05:05:22;17.77;;;5.00;;
66085;SDS011;52868;49.758;9.586;2022-12-18T05:07:48;15.77;;;5.53;;
66085;SDS011;52868;49.758;9.586;2022-12-18T05:10:14;11.25;;;4.57;;
66085;SDS011;52868;49.758;9.586;2022-12-18T05:12:41;14.93;;;6.00;;
66085;SDS011;52868;49.758;9.586;2022-12-18T05:15:28;22.48;;;5.63;;
66085;SDS011;52868;49.758;9.586;2022-12-18T05:17:55;14.25;;;6.18;;
66085;SDS011;52868;49.758;9.586;2022-12-18T05:20:21;17.58;;;6.70;;
66085;SDS011;52868;49.758;9.586;2022-12-18T05:22:47;21.55;;;6.50;;
66085;SDS011;52868;49.758;9.586;2022-12-18T05:25:14;13.32;;;5.35;;
66085;SDS011;52868;49.758;9.586;2022-12-18T05:27:40;15.82;;;5.50;;
66085;SDS011;52868;49.758;9.586;2022-12-18T05:30:06;12.63;;;5.07;;
66085;SDS011;52868;49.758;9.586;2022-12-18T05:32:33;25.63;;;6.00;;
66085;SDS011;52868;49.758;9.586;2022-12-18T05:34:59;15.15;;;5.78;;
66085;SDS011;52868;49.758;9.586;2022-12-18T05:37:25;16.77;;;4.63;;
66085;SDS011;52868;49.758;9.586;2022-12-18T05:39:51;11.32;;;4.55;;
66085;SDS011;52868;49.758;9.586;2022-12-18T05:42:17;19.70;;;5.60;;
66085;SDS011;52868;49.758;9.586;2022-12-18T05:44:43;11.65;;;5.00;;
66085;SDS011;52868;49.758;9.586;2022-12-18T05:47:09;15.05;;;5.22;;
66085;SDS011;52868;49.758;9.586;2022-12-18T05:49:35;13.80;;;5.10;;
66085;SDS011;52868;49.758;9.586;2022-12-18T05:52:01;15.57;;;6.07;;
66085;SDS011;52868;49.758;9.586;2022-12-18T05:54:27;27.77;;;7.50;;
66085;SDS011;52868;49.758;9.586;2022-12-18T05:56:53;11.95;;;5.40;;
66085;SDS011;52868;49.758;9.586;2022-12-18T05:59:19;16.38;;;5.50;;
66085;SDS011;52868;49.758;9.586;2022-12-18T06:01:45;10.02;;;4.43;;
66085;SDS011;52868;49.758;9.586;2022-12-18T06:04:12;14.20;;;6.53;;
66085;SDS011;52868;49.758;9.586;2022-12-18T06:06:38;13.80;;;5.15;;
66085;SDS011;52868;49.758;9.586;2022-12-18T06:09:04;17.83;;;5.93;;
66085;SDS011;52868;49.758;9.586;2022-12-18T06:11:35;14.95;;;5.30;;
66085;SDS011;52868;49.758;9.586;2022-12-18T06:14:02;13.38;;;6.28;;
66085;SDS011;52868;49.758;9.586;2022-12-18T06:16:30;12.10;;;5.43;;
66085;SDS011;52868;49.758;9.586;2022-12-18T06:18:59;13.02;;;5.45;;
66085;SDS011;52868;49.758;9.586;2022-12-18T06:21:25;12.10;;;5.57;;
66085;SDS011;52868;49.758;9.586;2022-12-18T06:23:51;12.90;;;5.05;;
66085;SDS011;52868;49.758;9.586;2022-12-18T06:26:18;15.55;;;6.70;;
66085;SDS011;52868;49.758;9.586;2022-12-18T06:28:44;12.77;;;6.63;;
66085;SDS011;52868;49.758;9.586;2022-12-18T06:31:10;23.20;;;6.90;;
66085;SDS011;52868;49.758;9.586;2022-12-18T06:33:36;15.18;;;5.45;;
66085;SDS011;52868;49.758;9.586;2022-12-18T06:36:06;16.73;;;6.35;;
66085;SDS011;52868;49.758;9.586;2022-12-18T06:38:33;14.68;;;6.43;;
66085;SDS011;52868;49.758;9.586;2022-12-18T06:40:59;11.43;;;5.45;;
66085;SDS011;52868;49.758;9.586;2022-12-18T06:43:25;13.70;;;5.55;;
66085;SDS011;52868;49.758;9.586;2022-12-18T06:45:57;12.85;;;5.97;;
66085;SDS011;52868;49.758;9.586;2022-12-18T06:48:23;13.23;;;5.97;;
66085;SDS011;52868;49.758;9.586;2022-12-18T06:50:49;16.27;;;6.57;;
66085;SDS011;52868;49.758;9.586;2022-12-18T06:53:15;19.35;;;7.25;;
66085;SDS011;52868;49.758;9.586;2022-12-18T06:55:41;17.00;;;7.00;;
66085;SDS011;52868;49.758;9.586;2022-12-18T06:58:07;20.70;;;7.32;;
66085;SDS011;52868;49.758;9.586;2022-12-18T07:00:33;13.30;;;6.32;;
66085;SDS011;52868;49.758;9.586;2022-12-18T07:02:59;17.75;;;7.53;;
66085;SDS011;52868;49.758;9.586;2022-12-18T07:05:25;14.02;;;7.00;;
66085;SDS011;52868;49.758;9.586;2022-12-18T07:07:51;12.52;;;5.38;;
66085;SDS011;52868;49.758;9.586;2022-12-18T07:10:17;13.23;;;5.95;;
66085;SDS011;52868;49.758;9.586;2022-12-18T07:12:43;17.30;;;6.07;;
66085;SDS011;52868;49.758;9.586;2022-12-18T07:15:09;17.50;;;6.70;;
66085;SDS011;52868;49.758;9.586;2022-12-18T07:17:35;31.95;;;6.97;;
66085;SDS011;52868;49.758;9.586;2022-12-18T07:20:01;27.42;;;8.43;;
66085;SDS011;52868;49.758;9.586;2022-12-18T07:22:27;33.47;;;7.70;;
66085;SDS011;52868;49.758;9.586;2022-12-18T07:24:53;31.25;;;9.52;;
66085;SDS011;52868;49.758;9.586;2022-12-18T07:27:20;35.45;;;9.32;;
66085;SDS011;52868;49.758;9.586;2022-12-18T07:29:46;24.80;;;8.88;;
66085;SDS011;52868;49.758;9.586;2022-12-18T07:32:12;24.88;;;8.65;;
66085;SDS011;52868;49.758;9.586;2022-12-18T07:34:38;24.02;;;8.18;;
66085;SDS011;52868;49.758;9.586;2022-12-18T07:37:04;26.42;;;7.97;;
66085;SDS011;52868;49.758;9.586;2022-12-18T07:39:30;30.98;;;10.07;;
66085;SDS011;52868;49.758;9.586;2022-12-18T07:41:56;30.70;;;8.93;;
66085;SDS011;52868;49.758;9.586;2022-12-18T07:44:41;47.13;;;10.98;;
66085;SDS011;52868;49.758;9.586;2022-12-18T07:47:07;22.88;;;8.27;;
66085;SDS011;52868;49.758;9.586;2022-12-18T07:49:33;31.02;;;9.55;;
66085;SDS011;52868;49.758;9.586;2022-12-18T07:51:59;23.50;;;9.13;;
66085;SDS011;52868;49.758;9.586;2022-12-18T07:54:26;23.98;;;7.93;;
66085;SDS011;52868;49.758;9.586;2022-12-18T07:56:52;17.05;;;6.93;;
66085;SDS011;52868;49.758;9.586;2022-12-18T07:59:18;21.20;;;7.32;;
66085;SDS011;52868;49.758;9.586;2022-12-18T08:01:44;30.98;;;9.48;;
66085;SDS011;52868;49.758;9.586;2022-12-18T08:04:10;30.83;;;9.73;;
66085;SDS011;52868;49.758;9.586;2022-12-18T08:06:36;43.00;;;10.40;;
66085;SDS011;52868;49.758;9.586;2022-12-18T08:09:02;31.42;;;10.25;;
66085;SDS011;52868;49.758;9.586;2022-12-18T08:11:29;26.25;;;8.90;;
66085;SDS011;52868;49.758;9.586;2022-12-18T08:13:55;24.75;;;8.32;;
66085;SDS011;52868;49.758;9.586;2022-12-18T08:16:22;28.73;;;9.23;;
66085;SDS011;52868;49.758;9.586;2022-12-18T08:18:49;37.03;;;9.85;;
66085;SDS011;52868;49.758;9.586;2022-12-18T08:21:16;35.28;;;8.55;;
66085;SDS011;52868;49.758;9.586;2022-12-18T08:23:43;35.20;;;9.88;;
66085;SDS011;52868;49.758;9.586;2022-12-18T08:26:13;16.60;;;7.45;;
66085;SDS011;52868;49.758;9.586;2022-12-18T08:31:05;23.33;;;6.30;;
66085;SDS011;52868;49.758;9.586;2022-12-18T08:33:31;26.40;;;8.15;;
66085;SDS011;52868;49.758;9.586;2022-12-18T08:36:00;25.55;;;7.45;;
66085;SDS011;52868;49.758;9.586;2022-12-18T08:38:26;29.98;;;7.68;;
66085;SDS011;52868;49.758;9.586;2022-12-18T08:41:03;27.73;;;8.02;;
66085;SDS011;52868;49.758;9.586;2022-12-18T08:43:29;28.55;;;8.13;;
66085;SDS011;52868;49.758;9.586;2022-12-18T08:46:14;31.58;;;10.27;;
66085;SDS011;52868;49.758;9.586;2022-12-18T08:48:40;31.88;;;10.73;;
66085;SDS011;52868;49.758;9.586;2022-12-18T08:51:06;31.55;;;9.15;;
66085;SDS011;52868;49.758;9.586;2022-12-18T08:53:34;25.60;;;8.95;;
66085;SDS011;52868;49.758;9.586;2022-12-18T08:56:00;32.58;;;9.50;;
66085;SDS011;52868;49.758;9.586;2022-12-18T08:58:26;23.02;;;8.07;;
66085;SDS011;52868;49.758;9.586;2022-12-18T09:00:52;33.05;;;8.98;;
66085;SDS011;52868;49.758;9.586;2022-12-18T09:03:19;20.55;;;7.20;;
66085;SDS011;52868;49.758;9.586;2022-12-18T09:05:47;32.80;;;9.80;;
66085;SDS011;52868;49.758;9.586;2022-12-18T09:08:13;32.00;;;9.15;;
66085;SDS011;52868;49.758;9.586;2022-12-18T09:10:43;22.40;;;8.35;;
66085;SDS011;52868;49.758;9.586;2022-12-18T09:13:10;23.08;;;7.68;;
66085;SDS011;52868;49.758;9.586;2022-12-18T09:15:43;26.10;;;8.93;;
66085;SDS011;52868;49.758;9.586;2022-12-18T09:18:10;21.23;;;7.57;;
66085;SDS011;52868;49.758;9.586;2022-12-18T09:20:36;26.95;;;9.23;;
66085;SDS011;52868;49.758;9.586;2022-12-18T09:23:03;19.65;;;7.75;;
66085;SDS011;52868;49.758;9.586;2022-12-18T09:25:29;25.38;;;8.07;;
66085;SDS011;52868;49.758;9.586;2022-12-18T09:28:01;29.85;;;8.32;;
66085;SDS011;52868;49.758;9.586;2022-12-18T09:30:27;24.40;;;8.13;;
66085;SDS011;52868;49.758;9.586;2022-12-18T09:32:53;26.55;;;9.73;;
66085;SDS011;52868;49.758;9.586;2022-12-18T09:35:19;31.58;;;8.30;;
66085;SDS011;52868;49.758;9.586;2022-12-18T09:37:45;22.42;;;7.93;;
66085;SDS011;52868;49.758;9.586;2022-12-18T09:40:14;23.88;;;7.82;;
66085;SDS011;52868;49.758;9.586;2022-12-18T09:42:42;25.65;;;7.65;;
66085;SDS011;52868;49.758;9.586;2022-12-18T09:47:37;21.27;;;7.20;;
66085;SDS011;52868;49.758;9.586;2022-12-18T09:50:06;30.15;;;8.65;;
66085;SDS011;52868;49.758;9.586;2022-12-18T09:52:45;32.00;;;8.65;;
66085;SDS011;52868;49.758;9.586;2022-12-18T09:57:39;25.65;;;7.78;;
66085;SDS011;52868;49.758;9.586;2022-12-18T10:00:29;30.25;;;8.85;;
66085;SDS011;52868;49.758;9.586;2022-12-18T10:03:13;22.85;;;8.23;;
66085;SDS011;52868;49.758;9.586;2022-12-18T10:11:16;22.23;;;6.93;;
66085;SDS011;52868;49.758;9.586;2022-12-18T10:13:47;28.88;;;8.90;;
66085;SDS011;52868;49.758;9.586;2022-12-18T10:16:39;18.52;;;6.40;;
66085;SDS011;52868;49.758;9.586;2022-12-18T10:22:11;28.90;;;8.38;;
66085;SDS011;52868;49.758;9.586;2022-12-18T10:27:14;25.00;;;7.28;;
66085;SDS011;52868;49.758;9.586;2022-12-18T10:29:41;33.55;;;7.55;;
66085;SDS011;52868;49.758;9.586;2022-12-18T10:32:09;19.20;;;6.20;;
66085;SDS011;52868;49.758;9.586;2022-12-18T10:34:38;18.52;;;6.38;;
66085;SDS011;52868;49.758;9.586;2022-12-18T10:37:06;25.38;;;6.75;;
66085;SDS011;52868;49.758;9.586;2022-12-18T10:39:32;21.30;;;7.35;;
66085;SDS011;52868;49.758;9.586;2022-12-18T10:42:16;26.27;;;8.02;;
66085;SDS011;52868;49.758;9.586;2022-12-18T10:44:42;22.52;;;6.82;;
66085;SDS011;52868;49.758;9.586;2022-12-18T10:47:11;17.63;;;6.22;;
66085;SDS011;52868;49.758;9.586;2022-12-18T10:49:37;19.67;;;6.43;;
66085;SDS011;52868;49.758;9.586;2022-12-18T10:52:14;21.65;;;7.47;;
66085;SDS011;52868;49.758;9.586;2022-12-18T10:54:46;28.63;;;6.35;;
66085;SDS011;52868;49.758;9.586;2022-12-18T10:59:58;29.77;;;7.65;;
66085;SDS011;52868;49.758;9.586;2022-12-18T11:02:33;17.17;;;6.55;;
66085;SDS011;52868;49.758;9.586;2022-12-18T11:04:59;20.80;;;5.55;;
66085;SDS011;52868;49.758;9.586;2022-12-18T11:07:25;21.88;;;6.75;;
66085;SDS011;52868;49.758;9.586;2022-12-18T11:10:00;15.73;;;5.85;;
66085;SDS011;52868;49.758;9.586;2022-12-18T11:12:28;21.10;;;6.10;;
66085;SDS011;52868;49.758;9.586;2022-12-18T11:14:57;22.13;;;6.03;;
66085;SDS011;52868;49.758;9.586;2022-12-18T11:19:57;23.85;;;6.57;;
66085;SDS011;52868;49.758;9.586;2022-12-18T11:22:28;23.90;;;5.70;;
66085;SDS011;52868;49.758;9.586;2022-12-18T11:24:58;18.33;;;5.30;;
66085;SDS011;52868;49.758;9.586;2022-12-18T11:27:25;18.98;;;6.15;;
66085;SDS011;52868;49.758;9.586;2022-12-18T11:29:51;23.52;;;7.40;;
66085;SDS011;52868;49.758;9.586;2022-12-18T11:32:24;18.00;;;5.28;;
66085;SDS011;52868;49.758;9.586;2022-12-18T11:34:56;27.42;;;7.43;;
66085;SDS011;52868;49.758;9.586;2022-12-18T11:37:23;22.02;;;7.40;;
66085;SDS011;52868;49.758;9.586;2022-12-18T11:40:06;22.33;;;7.00;;
66085;SDS011;52868;49.758;9.586;2022-12-18T11:45:27;27.88;;;6.53;;
66085;SDS011;52868;49.758;9.586;2022-12-18T11:50:26;20.85;;;7.38;;
66085;SDS011;52868;49.758;9.586;2022-12-18T11:52:54;22.13;;;7.00;;
66085;SDS011;52868;49.758;9.586;2022-12-18T11:55:37;20.88;;;5.57;;
66085;SDS011;52868;49.758;9.586;2022-12-18T12:00:40;21.88;;;6.25;;
66085;SDS011;52868;49.758;9.586;2022-12-18T12:03:15;19.42;;;6.57;;
66085;SDS011;52868;49.758;9.586;2022-12-18T12:13:52;19.23;;;6.13;;
66085;SDS011;52868;49.758;9.586;2022-12-18T12:21:42;23.88;;;6.75;;
66085;SDS011;52868;49.758;9.586;2022-12-18T12:34:06;21.13;;;6.63;;
66085;SDS011;52868;49.758;9.586;2022-12-18T12:39:11;22.90;;;6.60;;
66085;SDS011;52868;49.758;9.586;2022-12-18T12:41:40;17.85;;;5.72;;
66085;SDS011;52868;49.758;9.586;2022-12-18T12:44:43;22.75;;;7.22;;
66085;SDS011;52868;49.758;9.586;2022-12-18T12:47:21;17.95;;;5.22;;
66085;SDS011;52868;49.758;9.586;2022-12-18T12:49:49;29.40;;;5.88;;
66085;SDS011;52868;49.758;9.586;2022-12-18T12:52:35;22.88;;;5.72;;
66085;SDS011;52868;49.758;9.586;2022-12-18T12:55:04;18.02;;;6.00;;
66085;SDS011;52868;49.758;9.586;2022-12-18T13:02:29;18.38;;;6.45;;
66085;SDS011;52868;49.758;9.586;2022-12-18T13:04:58;22.07;;;7.20;;
66085;SDS011;52868;49.758;9.586;2022-12-18T13:07:35;17.65;;;5.07;;
66085;SDS011;52868;49.758;9.586;2022-12-18T13:10:22;20.30;;;5.00;;
66085;SDS011;52868;49.758;9.586;2022-12-18T13:12:52;19.10;;;6.47;;
66085;SDS011;52868;49.758;9.586;2022-12-18T13:15:38;25.80;;;8.20;;
66085;SDS011;52868;49.758;9.586;2022-12-18T13:20:41;22.13;;;6.20;;
66085;SDS011;52868;49.758;9.586;2022-12-18T13:25:58;21.67;;;7.00;;
66085;SDS011;52868;49.758;9.586;2022-12-18T13:31:11;20.02;;;6.28;;
66085;SDS011;52868;49.758;9.586;2022-12-18T13:36:44;11.83;;;4.27;;
66085;SDS011;52868;49.758;9.586;2022-12-18T13:41:39;15.53;;;6.60;;
66085;SDS011;52868;49.758;9.586;2022-12-18T13:46:50;22.92;;;6.70;;
66085;SDS011;52868;49.758;9.586;2022-12-18T13:49:36;19.35;;;7.05;;
66085;SDS011;52868;49.758;9.586;2022-12-18T13:52:24;18.88;;;6.55;;
66085;SDS011;52868;49.758;9.586;2022-12-18T13:54:52;18.60;;;5.82;;
66085;SDS011;52868;49.758;9.586;2022-12-18T13:59:55;26.67;;;6.05;;
66085;SDS011;52868;49.758;9.586;2022-12-18T14:04:48;20.27;;;5.82;;
66085;SDS011;52868;49.758;9.586;2022-12-18T14:07:17;20.52;;;6.28;;
66085;SDS011;52868;49.758;9.586;2022-12-18T14:09:44;17.73;;;5.22;;
66085;SDS011;52868;49.758;9.586;2022-12-18T14:12:17;18.13;;;5.03;;
66085;SDS011;52868;49.758;9.586;2022-12-18T14:22:59;21.63;;;6.65;;
66085;SDS011;52868;49.758;9.586;2022-12-18T14:26:43;19.35;;;5.15;;
66085;SDS011;52868;49.758;9.586;2022-12-18T14:34:16;13.32;;;5.55;;
66085;SDS011;52868;49.758;9.586;2022-12-18T14:36:44;16.25;;;5.28;;
66085;SDS011;52868;49.758;9.586;2022-12-18T14:39:18;23.08;;;6.53;;
66085;SDS011;52868;49.758;9.586;2022-12-18T14:41:43;19.95;;;6.57;;
66085;SDS011;52868;49.758;9.586;2022-12-18T14:44:11;18.27;;;6.20;;
66085;SDS011;52868;49.758;9.586;2022-12-18T14:46:38;25.35;;;6.25;;
66085;SDS011;52868;49.758;9.586;2022-12-18T14:52:22;23.50;;;6.20;;
66085;SDS011;52868;49.758;9.586;2022-12-18T14:54:52;19.67;;;5.25;;
66085;SDS011;52868;49.758;9.586;2022-12-18T14:57:25;15.27;;;5.78;;
66085;SDS011;52868;49.758;9.586;2022-12-18T15:00:10;18.67;;;6.50;;
66085;SDS011;52868;49.758;9.586;2022-12-18T15:02:54;22.40;;;7.05;;
66085;SDS011;52868;49.758;9.586;2022-12-18T15:07:50;17.85;;;6.38;;
66085;SDS011;52868;49.758;9.586;2022-12-18T15:18:09;11.70;;;4.30;;
66085;SDS011;52868;49.758;9.586;2022-12-18T15:21:07;25.83;;;6.70;;
66085;SDS011;52868;49.758;9.586;2022-12-18T15:26:09;21.08;;;7.53;;
66085;SDS011;52868;49.758;9.586;2022-12-18T15:33:37;18.00;;;6.22;;
66085;SDS011;52868;49.758;9.586;2022-12-18T15:36:05;19.48;;;6.13;;
66085;SDS011;52868;49.758;9.586;2022-12-18T15:38:34;14.75;;;6.07;;
66085;SDS011;52868;49.758;9.586;2022-12-18T15:41:00;19.02;;;5.40;;
66085;SDS011;52868;49.758;9.586;2022-12-18T15:43:27;18.35;;;6.80;;
66085;SDS011;52868;49.758;9.586;2022-12-18T15:46:02;18.30;;;6.25;;
66085;SDS011;52868;49.758;9.586;2022-12-18T15:48:31;19.45;;;6.00;;
66085;SDS011;52868;49.758;9.586;2022-12-18T15:51:02;14.20;;;5.38;;
66085;SDS011;52868;49.758;9.586;2022-12-18T15:53:29;19.08;;;5.07;;
66085;SDS011;52868;49.758;9.586;2022-12-18T15:55:57;19.73;;;6.75;;
66085;SDS011;52868;49.758;9.586;2022-12-18T15:58:41;25.70;;;7.72;;
66085;SDS011;52868;49.758;9.586;2022-12-18T16:01:08;19.70;;;6.70;;
66085;SDS011;52868;49.758;9.586;2022-12-18T16:03:35;19.80;;;6.30;;
66085;SDS011;52868;49.758;9.586;2022-12-18T16:06:00;27.77;;;7.35;;
66085;SDS011;52868;49.758;9.586;2022-12-18T16:08:27;19.70;;;6.45;;
66085;SDS011;52868;49.758;9.586;2022-12-18T16:10:54;17.77;;;6.32;;
66085;SDS011;52868;49.758;9.586;2022-12-18T16:13:21;21.15;;;7.07;;
66085;SDS011;52868;49.758;9.586;2022-12-18T16:15:46;15.40;;;5.28;;
66085;SDS011;52868;49.758;9.586;2022-12-18T16:18:12;19.13;;;5.88;;
66085;SDS011;52868;49.758;9.586;2022-12-18T16:20:38;22.95;;;7.15;;
66085;SDS011;52868;49.758;9.586;2022-12-18T16:23:04;23.63;;;6.22;;
66085;SDS011;52868;49.758;9.586;2022-12-18T16:25:30;18.38;;;6.13;;
66085;SDS011;52868;49.758;9.586;2022-12-18T16:27:56;22.95;;;5.93;;
66085;SDS011;52868;49.758;9.586;2022-12-18T16:30:30;24.90;;;7.03;;
66085;SDS011;52868;49.758;9.586;2022-12-18T16:32:59;19.70;;;5.78;;
66085;SDS011;52868;49.758;9.586;2022-12-18T16:35:25;20.92;;;6.10;;
66085;SDS011;52868;49.758;9.586;2022-12-18T16:37:51;23.90;;;7.32;;
66085;SDS011;52868;49.758;9.586;2022-12-18T16:40:17;20.92;;;6.75;;
66085;SDS011;52868;49.758;9.586;2022-12-18T16:42:44;20.35;;;5.15;;
66085;SDS011;52868;49.758;9.586;2022-12-18T16:45:11;18.80;;;6.20;;
66085;SDS011;52868;49.758;9.586;2022-12-18T16:47:39;25.53;;;6.83;;
66085;SDS011;52868;49.758;9.586;2022-12-18T16:50:05;19.60;;;5.97;;
66085;SDS011;52868;49.758;9.586;2022-12-18T16:52:32;16.17;;;7.38;;
66085;SDS011;52868;49.758;9.586;2022-12-18T16:54:58;23.73;;;6.43;;
66085;SDS011;52868;49.758;9.586;2022-12-18T16:57:23;20.35;;;6.28;;
66085;SDS011;52868;49.758;9.586;2022-12-18T16:59:49;18.45;;;7.30;;
66085;SDS011;52868;49.758;9.586;2022-12-18T17:04:42;17.45;;;5.95;;
66085;SDS011;52868;49.758;9.586;2022-12-18T17:07:07;19.10;;;6.32;;
66085;SDS011;52868;49.758;9.586;2022-12-18T17:09:33;24.13;;;7.88;;
66085;SDS011;52868;49.758;9.586;2022-12-18T17:11:59;17.50;;;6.05;;